sensor_id;sensor_type;location;lat;lon;timestamp;pressure;altitude;pressure_sealevel;temperature;humidity
56241;BME280;42155;53.096;23.226;2023-08-31T00:01:00;98855.50;;;19.41;83.15
56241;BME280;42155;53.096;23.226;2023-08-31T00:03:01;98837.53;;;19.28;83.18
56241;BME280;42155;53.096;23.226;2023-08-31T00:05:02;98869.41;;;19.51;82.87
56241;BME280;42155;53.096;23.226;2023-08-31T00:07:02;98854.09;;;19.38;82.88
56241;BME280;42155;53.096;23.226;2023-08-31T00:09:03;98866.72;;;19.51;83.17
56241;BME280;42155;53.096;23.226;2023-08-31T00:11:03;98876.44;;;19.52;83.35
56241;BME280;42155;53.096;23.226;2023-08-31T00:13:04;98871.88;;;19.52;83.25
56241;BME280;42155;53.096;23.226;2023-08-31T00:15:05;98880.16;;;19.51;83.49
56241;BME280;42155;53.096;23.226;2023-08-31T00:17:06;98875.19;;;19.48;83.48
56241;BME280;42155;53.096;23.226;2023-08-31T00:19:06;98870.66;;;19.42;83.42
56241;BME280;42155;53.096;23.226;2023-08-31T00:21:08;98882.22;;;19.49;83.52
56241;BME280;42155;53.096;23.226;2023-08-31T00:23:08;98890.50;;;19.47;83.66
56241;BME280;42155;53.096;23.226;2023-08-31T00:25:09;98871.88;;;19.32;83.53
56241;BME280;42155;53.096;23.226;2023-08-31T00:27:09;98898.38;;;19.42;83.61
56241;BME280;42155;53.096;23.226;2023-08-31T00:29:10;98885.13;;;19.27;83.42
56241;BME280;42155;53.096;23.226;2023-08-31T00:31:10;98900.44;;;19.33;83.83
56241;BME280;42155;53.096;23.226;2023-08-31T00:33:12;98880.56;;;19.21;83.74
56241;BME280;42155;53.096;23.226;2023-08-31T00:35:12;98891.72;;;19.31;83.62
56241;BME280;42155;53.096;23.226;2023-08-31T00:37:12;98905.41;;;19.30;83.72
56241;BME280;42155;53.096;23.226;2023-08-31T00:39:13;98899.19;;;19.29;83.81
56241;BME280;42155;53.096;23.226;2023-08-31T00:41:13;98895.88;;;19.27;83.86
56241;BME280;42155;53.096;23.226;2023-08-31T00:43:14;98903.75;;;19.29;83.77
56241;BME280;42155;53.096;23.226;2023-08-31T00:45:14;98888.44;;;19.23;83.88
56241;BME280;42155;53.096;23.226;2023-08-31T00:47:15;98887.38;;;19.17;83.46
56241;BME280;42155;53.096;23.226;2023-08-31T00:49:15;98905.19;;;19.25;83.61
56241;BME280;42155;53.096;23.226;2023-08-31T00:51:16;98887.38;;;19.17;83.77
56241;BME280;42155;53.096;23.226;2023-08-31T00:53:17;98899.38;;;19.21;83.80
56241;BME280;42155;53.096;23.226;2023-08-31T00:55:17;98878.47;;;19.10;83.58
56241;BME280;42155;53.096;23.226;2023-08-31T00:57:18;98899.38;;;19.21;84.00
56241;BME280;42155;53.096;23.226;2023-08-31T00:59:18;98881.78;;;19.12;83.65
56241;BME280;42155;53.096;23.226;2023-08-31T01:05:55;98901.03;;;19.09;84.08
56241;BME280;42155;53.096;23.226;2023-08-31T01:12:46;98899.56;;;19.00;84.50
56241;BME280;42155;53.096;23.226;2023-08-31T01:14:51;98871.41;;;18.82;83.64
56241;BME280;42155;53.096;23.226;2023-08-31T01:16:58;98896.25;;;18.98;84.15
56241;BME280;42155;53.096;23.226;2023-08-31T01:19:02;98885.88;;;18.88;84.07
56241;BME280;42155;53.096;23.226;2023-08-31T01:21:19;98896.88;;;19.00;83.62
56241;BME280;42155;53.096;23.226;2023-08-31T01:23:27;98904.94;;;19.00;83.71
56241;BME280;42155;53.096;23.226;2023-08-31T01:25:30;98907.63;;;19.00;83.56
56241;BME280;42155;53.096;23.226;2023-08-31T01:27:31;98899.56;;;19.00;83.55
56241;BME280;42155;53.096;23.226;2023-08-31T01:29:32;98883.63;;;18.92;83.99
56241;BME280;42155;53.096;23.226;2023-08-31T01:31:32;98890.66;;;18.93;84.43
56241;BME280;42155;53.096;23.226;2023-08-31T01:33:33;98895.41;;;18.97;84.24
56241;BME280;42155;53.096;23.226;2023-08-31T01:35:43;98907.63;;;19.00;83.91
56241;BME280;42155;53.096;23.226;2023-08-31T01:37:50;98895.81;;;18.94;83.99
56241;BME280;42155;53.096;23.226;2023-08-31T01:40:02;98902.00;;;18.88;84.29
56241;BME280;42155;53.096;23.226;2023-08-31T01:42:05;98902.41;;;18.85;84.19
56241;BME280;42155;53.096;23.226;2023-08-31T01:44:07;98864.47;;;18.67;83.91
56241;BME280;42155;53.096;23.226;2023-08-31T01:46:09;98860.97;;;18.66;84.01
56241;BME280;42155;53.096;23.226;2023-08-31T01:48:10;98891.47;;;18.87;84.06
56241;BME280;42155;53.096;23.226;2023-08-31T01:50:11;98894.56;;;18.83;84.26
56241;BME280;42155;53.096;23.226;2023-08-31T01:52:11;98885.44;;;18.78;83.81
56241;BME280;42155;53.096;23.226;2023-08-31T01:54:11;98893.50;;;18.85;83.42
56241;BME280;42155;53.096;23.226;2023-08-31T01:56:12;98896.63;;;18.88;83.62
56241;BME280;42155;53.096;23.226;2023-08-31T01:58:14;98898.50;;;18.88;83.20
56241;BME280;42155;53.096;23.226;2023-08-31T02:00:16;98899.53;;;18.87;83.18
56241;BME280;42155;53.096;23.226;2023-08-31T02:02:17;98896.19;;;18.85;82.99
56241;BME280;42155;53.096;23.226;2023-08-31T02:04:17;98898.88;;;18.85;82.94
56241;BME280;42155;53.096;23.226;2023-08-31T02:06:18;98880.47;;;18.75;83.37
56241;BME280;42155;53.096;23.226;2023-08-31T02:08:18;98894.56;;;18.83;83.10
56241;BME280;42155;53.096;23.226;2023-08-31T02:10:18;98879.03;;;18.72;83.09
56241;BME280;42155;53.096;23.226;2023-08-31T02:12:19;98890.38;;;18.74;82.76
56241;BME280;42155;53.096;23.226;2023-08-31T02:14:19;98889.56;;;18.74;82.98
56241;BME280;42155;53.096;23.226;2023-08-31T02:16:19;98882.94;;;18.76;83.14
56241;BME280;42155;53.096;23.226;2023-08-31T02:18:20;98898.25;;;18.76;82.74
56241;BME280;42155;53.096;23.226;2023-08-31T02:20:20;98906.50;;;18.74;83.09
56241;BME280;42155;53.096;23.226;2023-08-31T02:22:20;98839.41;;;18.40;82.86
56241;BME280;42155;53.096;23.226;2023-08-31T02:24:21;98882.47;;;18.66;83.24
56241;BME280;42155;53.096;23.226;2023-08-31T02:26:21;98894.66;;;18.62;83.47
56241;BME280;42155;53.096;23.226;2023-08-31T02:28:22;98901.94;;;18.68;83.53
56241;BME280;42155;53.096;23.226;2023-08-31T02:30:22;98900.66;;;18.64;83.46
56241;BME280;42155;53.096;23.226;2023-08-31T02:32:23;98888.00;;;18.51;83.88
56241;BME280;42155;53.096;23.226;2023-08-31T02:34:23;98906.66;;;18.66;83.82
56241;BME280;42155;53.096;23.226;2023-08-31T02:36:23;98913.06;;;18.65;83.45
56241;BME280;42155;53.096;23.226;2023-08-31T02:38:24;98914.34;;;18.69;83.55
56241;BME280;42155;53.096;23.226;2023-08-31T02:40:24;98917.66;;;18.71;83.56
56241;BME280;42155;53.096;23.226;2023-08-31T02:42:24;98921.38;;;18.70;83.68
56241;BME280;42155;53.096;23.226;2023-08-31T02:44:25;98917.41;;;18.66;83.94
56241;BME280;42155;53.096;23.226;2023-08-31T02:46:25;98918.06;;;18.68;83.46
56241;BME280;42155;53.096;23.226;2023-08-31T02:48:25;98907.69;;;18.65;83.62
56241;BME280;42155;53.096;23.226;2023-08-31T02:50:25;98913.53;;;18.69;83.46
56241;BME280;42155;53.096;23.226;2023-08-31T02:52:26;98906.66;;;18.60;84.06
56241;BME280;42155;53.096;23.226;2023-08-31T02:54:26;98918.84;;;18.62;84.24
56241;BME280;42155;53.096;23.226;2023-08-31T02:56:26;98905.19;;;18.57;84.25
56241;BME280;42155;53.096;23.226;2023-08-31T02:58:27;98915.31;;;18.62;83.91
56241;BME280;42155;53.096;23.226;2023-08-31T03:00:27;98917.19;;;18.61;84.00
56241;BME280;42155;53.096;23.226;2023-08-31T03:02:27;98917.19;;;18.61;84.19
56241;BME280;42155;53.096;23.226;2023-08-31T03:04:33;98925.25;;;18.61;84.05
56241;BME280;42155;53.096;23.226;2023-08-31T03:06:34;98918.22;;;18.60;84.30
56241;BME280;42155;53.096;23.226;2023-08-31T03:08:35;98917.19;;;18.61;84.19
56241;BME280;42155;53.096;23.226;2023-08-31T03:10:36;98910.16;;;18.60;83.83
56241;BME280;42155;53.096;23.226;2023-08-31T03:12:37;98913.00;;;18.52;84.23
56241;BME280;42155;53.096;23.226;2023-08-31T03:14:37;98895.63;;;18.41;84.46
56241;BME280;42155;53.096;23.226;2023-08-31T03:16:37;98916.34;;;18.54;84.09
56241;BME280;42155;53.096;23.226;2023-08-31T03:18:38;98900.59;;;18.51;83.99
56241;BME280;42155;53.096;23.226;2023-08-31T03:20:38;98919.66;;;18.56;83.96
56241;BME280;42155;53.096;23.226;2023-08-31T03:22:38;98913.00;;;18.52;84.20
56241;BME280;42155;53.096;23.226;2023-08-31T03:24:39;98927.31;;;18.59;84.44
56241;BME280;42155;53.096;23.226;2023-08-31T03:26:39;98890.69;;;18.45;84.21
56241;BME280;42155;53.096;23.226;2023-08-31T03:28:39;98920.28;;;18.58;84.62
56241;BME280;42155;53.096;23.226;2023-08-31T03:30:40;98919.25;;;18.59;84.32
56241;BME280;42155;53.096;23.226;2023-08-31T03:32:40;98919.66;;;18.56;84.15
56241;BME280;42155;53.096;23.226;2023-08-31T03:34:40;98916.34;;;18.54;84.13
56241;BME280;42155;53.096;23.226;2023-08-31T03:36:41;98922.34;;;18.56;84.42
56241;BME280;42155;53.096;23.226;2023-08-31T03:38:41;98929.19;;;18.58;84.40
56241;BME280;42155;53.096;23.226;2023-08-31T03:40:41;98928.34;;;18.58;84.15
56241;BME280;42155;53.096;23.226;2023-08-31T03:42:42;98932.88;;;18.57;84.33
56241;BME280;42155;53.096;23.226;2023-08-31T03:44:42;98926.66;;;18.57;84.09
56241;BME280;42155;53.096;23.226;2023-08-31T03:46:42;98924.63;;;18.59;84.37
56241;BME280;42155;53.096;23.226;2023-08-31T03:48:43;98930.63;;;18.61;84.17
56241;BME280;42155;53.096;23.226;2023-08-31T03:50:43;98927.94;;;18.61;84.46
56241;BME280;42155;53.096;23.226;2023-08-31T03:52:43;98929.41;;;18.64;84.47
56241;BME280;42155;53.096;23.226;2023-08-31T03:54:44;98904.72;;;18.47;84.06
56241;BME280;42155;53.096;23.226;2023-08-31T03:56:44;98932.91;;;18.64;84.07
56241;BME280;42155;53.096;23.226;2023-08-31T03:58:44;98924.63;;;18.59;84.35
56241;BME280;42155;53.096;23.226;2023-08-31T04:00:49;98907.63;;;18.45;84.49
56241;BME280;42155;53.096;23.226;2023-08-31T04:02:49;98933.72;;;18.58;84.49
56241;BME280;42155;53.096;23.226;2023-08-31T04:04:49;98936.63;;;18.63;84.53
56241;BME280;42155;53.096;23.226;2023-08-31T04:06:50;98934.97;;;18.62;84.77
56241;BME280;42155;53.096;23.226;2023-08-31T04:08:50;98936.88;;;18.68;84.30
56241;BME280;42155;53.096;23.226;2023-08-31T04:10:50;98934.78;;;18.64;84.24
56241;BME280;42155;53.096;23.226;2023-08-31T04:12:51;98927.09;;;18.61;84.61
56241;BME280;42155;53.096;23.226;2023-08-31T04:14:51;98921.28;;;18.57;84.92
56241;BME280;42155;53.096;23.226;2023-08-31T04:16:51;98910.31;;;18.45;84.59
56241;BME280;42155;53.096;23.226;2023-08-31T04:18:52;98932.91;;;18.64;84.67
56241;BME280;42155;53.096;23.226;2023-08-31T04:20:53;98933.34;;;18.68;84.60
56241;BME280;42155;53.096;23.226;2023-08-31T04:22:53;98948.25;;;18.70;84.42
56241;BME280;42155;53.096;23.226;2023-08-31T04:24:54;98933.94;;;18.63;84.33
56241;BME280;42155;53.096;23.226;2023-08-31T04:26:54;98931.88;;;18.65;83.83
56241;BME280;42155;53.096;23.226;2023-08-31T04:28:54;98951.59;;;18.72;84.47
56241;BME280;42155;53.096;23.226;2023-08-31T04:30:55;98950.13;;;18.70;84.37
56241;BME280;42155;53.096;23.226;2023-08-31T04:32:55;98937.84;;;18.61;84.60
56241;BME280;42155;53.096;23.226;2023-08-31T04:34:55;98942.25;;;18.68;84.43
56241;BME280;42155;53.096;23.226;2023-08-31T04:36:56;98958.19;;;18.76;84.66
56241;BME280;42155;53.096;23.226;2023-08-31T04:38:56;98949.13;;;18.77;84.29
56241;BME280;42155;53.096;23.226;2023-08-31T04:41:00;98941.25;;;18.76;84.44
56241;BME280;42155;53.096;23.226;2023-08-31T04:43:01;98944.75;;;18.76;84.39
56241;BME280;42155;53.096;23.226;2023-08-31T04:45:02;98947.88;;;18.73;84.78
56241;BME280;42155;53.096;23.226;2023-08-31T04:47:02;98941.47;;;18.74;84.38
56241;BME280;42155;53.096;23.226;2023-08-31T04:49:02;98940.41;;;18.75;84.41
56241;BME280;42155;53.096;23.226;2023-08-31T04:51:03;98950.38;;;18.81;84.50
56241;BME280;42155;53.096;23.226;2023-08-31T04:53:03;98949.97;;;18.85;84.44
56241;BME280;42155;53.096;23.226;2023-08-31T04:55:06;98944.81;;;18.83;84.32
56241;BME280;42155;53.096;23.226;2023-08-31T04:57:06;98930.31;;;18.84;84.05
56241;BME280;42155;53.096;23.226;2023-08-31T04:59:06;98956.81;;;18.94;84.05
56241;BME280;42155;53.096;23.226;2023-08-31T05:01:07;98932.19;;;18.83;83.76
56241;BME280;42155;53.096;23.226;2023-08-31T05:03:07;98958.47;;;18.88;83.93
56241;BME280;42155;53.096;23.226;2023-08-31T05:05:08;98944.16;;;18.81;83.41
56241;BME280;42155;53.096;23.226;2023-08-31T05:07:08;98954.31;;;18.86;83.60
56241;BME280;42155;53.096;23.226;2023-08-31T05:09:08;98936.69;;;18.76;83.74
56241;BME280;42155;53.096;23.226;2023-08-31T05:11:09;98959.69;;;18.86;84.24
56241;BME280;42155;53.096;23.226;2023-08-31T05:13:09;98969.44;;;18.87;83.72
56241;BME280;42155;53.096;23.226;2023-08-31T05:15:09;98981.84;;;18.88;83.65
56241;BME280;42155;53.096;23.226;2023-08-31T05:17:10;98969.81;;;18.83;83.20
56241;BME280;42155;53.096;23.226;2023-08-31T05:19:10;98983.50;;;18.89;83.35
56241;BME280;42155;53.096;23.226;2023-08-31T05:21:10;98985.97;;;18.90;83.08
56241;BME280;42155;53.096;23.226;2023-08-31T05:23:12;98991.34;;;18.90;83.47
56241;BME280;42155;53.096;23.226;2023-08-31T05:25:15;98997.97;;;18.88;83.54
56241;BME280;42155;53.096;23.226;2023-08-31T05:27:15;98993.63;;;18.87;83.29
56241;BME280;42155;53.096;23.226;2023-08-31T05:29:17;98989.25;;;18.86;84.07
56241;BME280;42155;53.096;23.226;2023-08-31T05:31:19;99000.81;;;18.79;83.75
56241;BME280;42155;53.096;23.226;2023-08-31T05:33:19;99018.38;;;18.75;84.16
56241;BME280;42155;53.096;23.226;2023-08-31T05:35:20;98993.31;;;18.68;84.41
56241;BME280;42155;53.096;23.226;2023-08-31T05:37:21;99004.81;;;18.62;84.01
56241;BME280;42155;53.096;23.226;2023-08-31T05:39:21;99006.47;;;18.56;84.53
56241;BME280;42155;53.096;23.226;2023-08-31T05:41:22;99013.91;;;18.54;83.75
56241;BME280;42155;53.096;23.226;2023-08-31T05:43:22;99013.06;;;18.54;84.34
56241;BME280;42155;53.096;23.226;2023-08-31T05:45:22;99005.19;;;18.52;84.05
56241;BME280;42155;53.096;23.226;2023-08-31T05:47:23;99011.38;;;18.53;83.92
56241;BME280;42155;53.096;23.226;2023-08-31T05:49:23;99000.19;;;18.43;83.98
56241;BME280;42155;53.096;23.226;2023-08-31T05:51:24;99017.31;;;18.42;84.28
56241;BME280;42155;53.096;23.226;2023-08-31T05:53:24;99015.84;;;18.39;84.48
56241;BME280;42155;53.096;23.226;2023-08-31T05:55:24;99020.00;;;18.42;84.42
56241;BME280;42155;53.096;23.226;2023-08-31T05:57:26;99005.75;;;18.41;84.32
56241;BME280;42155;53.096;23.226;2023-08-31T05:59:26;99021.28;;;18.46;84.28
56241;BME280;42155;53.096;23.226;2023-08-31T06:01:27;99016.16;;;18.51;84.08
56241;BME280;42155;53.096;23.226;2023-08-31T06:03:27;99005.63;;;18.56;83.75
56241;BME280;42155;53.096;23.226;2023-08-31T06:05:27;99016.38;;;18.56;83.98
56241;BME280;42155;53.096;23.226;2023-08-31T06:07:28;99013.47;;;18.57;83.97
56241;BME280;42155;53.096;23.226;2023-08-31T06:09:28;99016.47;;;18.69;83.59
56241;BME280;42155;53.096;23.226;2023-08-31T06:11:28;99018.78;;;18.72;83.44
56241;BME280;42155;53.096;23.226;2023-08-31T06:13:29;99019.41;;;18.74;83.67
56241;BME280;42155;53.096;23.226;2023-08-31T06:15:29;99027.47;;;18.74;82.89
56241;BME280;42155;53.096;23.226;2023-08-31T06:17:29;99029.78;;;18.77;83.59
56241;BME280;42155;53.096;23.226;2023-08-31T06:19:30;99030.53;;;18.71;83.48
56241;BME280;42155;53.096;23.226;2023-08-31T06:21:30;99030.38;;;18.79;83.28
56241;BME280;42155;53.096;23.226;2023-08-31T06:23:30;99029.34;;;18.80;83.55
56241;BME280;42155;53.096;23.226;2023-08-31T06:25:31;99031.03;;;18.81;82.90
56241;BME280;42155;53.096;23.226;2023-08-31T06:27:31;98997.63;;;18.63;82.74
56241;BME280;42155;53.096;23.226;2023-08-31T06:29:31;99024.81;;;18.81;83.21
56241;BME280;42155;53.096;23.226;2023-08-31T06:31:32;99028.50;;;18.73;82.71
56241;BME280;42155;53.096;23.226;2023-08-31T06:33:32;99031.41;;;18.78;83.07
56241;BME280;42155;53.096;23.226;2023-08-31T06:35:32;99032.47;;;18.77;82.97
56241;BME280;42155;53.096;23.226;2023-08-31T06:37:33;99053.75;;;18.79;83.32
56241;BME280;42155;53.096;23.226;2023-08-31T06:39:33;99032.97;;;18.66;83.11
56241;BME280;42155;53.096;23.226;2023-08-31T06:41:34;99043.44;;;18.82;82.86
56241;BME280;42155;53.096;23.226;2023-08-31T06:43:34;99054.63;;;18.86;83.26
56241;BME280;42155;53.096;23.226;2023-08-31T06:45:34;99056.06;;;18.89;82.94
56241;BME280;42155;53.096;23.226;2023-08-31T06:47:35;99049.03;;;18.88;82.84
56241;BME280;42155;53.096;23.226;2023-08-31T06:49:35;99050.09;;;18.87;83.32
56241;BME280;42155;53.096;23.226;2023-08-31T06:51:35;99037.25;;;18.82;82.77
56241;BME280;42155;53.096;23.226;2023-08-31T06:53:36;99044.34;;;18.96;83.12
56241;BME280;42155;53.096;23.226;2023-08-31T06:55:36;99044.16;;;19.04;82.63
56241;BME280;42155;53.096;23.226;2023-08-31T06:57:37;99035.25;;;19.04;82.76
56241;BME280;42155;53.096;23.226;2023-08-31T06:59:37;99055.56;;;19.13;82.08
56241;BME280;42155;53.096;23.226;2023-08-31T07:01:37;99050.19;;;19.13;81.70
56241;BME280;42155;53.096;23.226;2023-08-31T07:03:38;99052.63;;;19.08;81.65
56241;BME280;42155;53.096;23.226;2023-08-31T07:05:41;99063.81;;;19.05;81.19
56241;BME280;42155;53.096;23.226;2023-08-31T07:07:42;99050.09;;;18.87;81.46
56241;BME280;42155;53.096;23.226;2023-08-31T07:09:43;99071.22;;;18.96;81.66
56241;BME280;42155;53.096;23.226;2023-08-31T07:11:43;99049.25;;;18.86;81.14
56241;BME280;42155;53.096;23.226;2023-08-31T07:13:44;99052.56;;;18.88;80.90
56241;BME280;42155;53.096;23.226;2023-08-31T07:15:44;99070.41;;;19.02;80.87
56241;BME280;42155;53.096;23.226;2023-08-31T07:17:49;99069.59;;;19.02;80.40
56241;BME280;42155;53.096;23.226;2023-08-31T07:20:00;99069.19;;;19.05;80.41
56241;BME280;42155;53.096;23.226;2023-08-31T07:22:10;99062.13;;;19.04;80.32
56241;BME280;42155;53.096;23.226;2023-08-31T07:24:35;99063.38;;;19.01;80.55
56241;BME280;42155;53.096;23.226;2023-08-31T07:26:47;99064.00;;;19.03;80.41
56241;BME280;42155;53.096;23.226;2023-08-31T07:28:59;99053.06;;;19.05;80.40
56241;BME280;42155;53.096;23.226;2023-08-31T07:31:06;99065.09;;;19.09;80.93
56241;BME280;42155;53.096;23.226;2023-08-31T07:33:12;99071.69;;;19.06;80.90
56241;BME280;42155;53.096;23.226;2023-08-31T07:35:12;99075.84;;;19.09;80.58
56241;BME280;42155;53.096;23.226;2023-08-31T07:37:12;99073.38;;;19.14;79.61
56241;BME280;42155;53.096;23.226;2023-08-31T07:39:13;99079.16;;;19.18;79.84
56241;BME280;42155;53.096;23.226;2023-08-31T07:41:13;99061.78;;;19.14;79.22
56241;BME280;42155;53.096;23.226;2023-08-31T07:43:13;99066.78;;;19.23;78.99
56241;BME280;42155;53.096;23.226;2023-08-31T07:45:14;99041.28;;;19.06;79.39
56241;BME280;42155;53.096;23.226;2023-08-31T07:47:14;99063.47;;;19.21;79.50
56241;BME280;42155;53.096;23.226;2023-08-31T07:49:14;99080.25;;;19.30;79.24
56241;BME280;42155;53.096;23.226;2023-08-31T07:51:15;99076.34;;;19.32;78.85
56241;BME280;42155;53.096;23.226;2023-08-31T07:53:15;99078.00;;;19.33;78.23
56241;BME280;42155;53.096;23.226;2023-08-31T07:55:15;99088.75;;;19.33;78.27
56241;BME280;42155;53.096;23.226;2023-08-31T07:57:16;99088.31;;;19.30;78.31
56241;BME280;42155;53.096;23.226;2023-08-31T07:59:17;99091.84;;;19.30;78.38
56241;BME280;42155;53.096;23.226;2023-08-31T08:01:21;99084.19;;;19.27;78.74
56241;BME280;42155;53.096;23.226;2023-08-31T08:03:25;99090.97;;;19.17;79.17
56241;BME280;42155;53.096;23.226;2023-08-31T08:05:27;99088.03;;;19.12;79.16
56241;BME280;42155;53.096;23.226;2023-08-31T08:07:27;99093.03;;;19.15;78.98
56241;BME280;42155;53.096;23.226;2023-08-31T08:09:30;99092.44;;;19.19;79.15
56241;BME280;42155;53.096;23.226;2023-08-31T08:11:44;99102.16;;;19.20;79.45
56241;BME280;42155;53.096;23.226;2023-08-31T08:14:03;99097.81;;;19.19;79.22
56241;BME280;42155;53.096;23.226;2023-08-31T08:16:09;99100.06;;;19.16;79.35
56241;BME280;42155;53.096;23.226;2023-08-31T08:18:09;99096.56;;;19.15;79.36
56241;BME280;42155;53.096;23.226;2023-08-31T08:20:10;99094.28;;;19.19;79.13
56241;BME280;42155;53.096;23.226;2023-08-31T08:22:11;99101.31;;;19.20;78.84
56241;BME280;42155;53.096;23.226;2023-08-31T08:24:11;99103.81;;;19.21;78.39
56241;BME280;42155;53.096;23.226;2023-08-31T08:26:12;99098.44;;;19.21;78.41
56241;BME280;42155;53.096;23.226;2023-08-31T08:28:12;99100.72;;;19.24;77.77
56241;BME280;42155;53.096;23.226;2023-08-31T08:30:13;99106.72;;;19.26;77.87
56241;BME280;42155;53.096;23.226;2023-08-31T08:32:13;99097.44;;;19.29;77.63
56241;BME280;42155;53.096;23.226;2023-08-31T08:34:14;99103.03;;;19.34;77.91
56241;BME280;42155;53.096;23.226;2023-08-31T08:36:16;99101.63;;;19.45;77.01
56241;BME280;42155;53.096;23.226;2023-08-31T08:38:16;99102.06;;;19.55;77.12
56241;BME280;42155;53.096;23.226;2023-08-31T08:40:17;99101.91;;;19.63;76.70
56241;BME280;42155;53.096;23.226;2023-08-31T08:42:18;99094.72;;;19.70;76.60
56241;BME280;42155;53.096;23.226;2023-08-31T08:44:21;99100.53;;;19.74;76.76
56241;BME280;42155;53.096;23.226;2023-08-31T08:46:22;99100.53;;;19.74;76.82
56241;BME280;42155;53.096;23.226;2023-08-31T08:48:23;99095.53;;;19.71;76.69
56241;BME280;42155;53.096;23.226;2023-08-31T08:50:29;99098.84;;;19.66;76.24
56241;BME280;42155;53.096;23.226;2023-08-31T08:52:44;99101.31;;;19.61;76.46
56241;BME280;42155;53.096;23.226;2023-08-31T08:55:04;99104.75;;;19.55;76.14
56241;BME280;42155;53.096;23.226;2023-08-31T08:57:14;99101.06;;;19.56;76.24
56241;BME280;42155;53.096;23.226;2023-08-31T08:59:15;99099.19;;;19.56;77.09
56241;BME280;42155;53.096;23.226;2023-08-31T09:01:15;99103.75;;;19.56;76.32
56241;BME280;42155;53.096;23.226;2023-08-31T09:03:16;99106.22;;;19.57;76.69
56241;BME280;42155;53.096;23.226;2023-08-31T09:05:16;99106.00;;;19.59;76.59
56241;BME280;42155;53.096;23.226;2023-08-31T09:07:17;99117.81;;;19.58;76.23
56241;BME280;42155;53.096;23.226;2023-08-31T09:09:17;99109.13;;;19.56;75.81
56241;BME280;42155;53.096;23.226;2023-08-31T09:11:20;99115.13;;;19.51;75.56
56241;BME280;42155;53.096;23.226;2023-08-31T09:13:21;99113.66;;;19.49;75.54
56241;BME280;42155;53.096;23.226;2023-08-31T09:15:25;99117.16;;;19.49;75.32
56241;BME280;42155;53.096;23.226;2023-08-31T09:17:26;99116.97;;;19.51;74.82
56241;BME280;42155;53.096;23.226;2023-08-31T09:19:36;99119.69;;;19.57;74.94
56241;BME280;42155;53.096;23.226;2023-08-31T09:22:13;99103.53;;;19.57;74.40
56241;BME280;42155;53.096;23.226;2023-08-31T09:24:13;99110.78;;;19.57;74.57
56241;BME280;42155;53.096;23.226;2023-08-31T09:26:13;99088.00;;;19.46;74.16
56241;BME280;42155;53.096;23.226;2023-08-31T09:28:15;99117.28;;;19.69;74.43
56241;BME280;42155;53.096;23.226;2023-08-31T09:30:17;99112.94;;;19.75;74.14
56241;BME280;42155;53.096;23.226;2023-08-31T09:32:18;99096.34;;;19.65;74.28
56241;BME280;42155;53.096;23.226;2023-08-31T09:34:19;99122.69;;;19.82;74.33
56241;BME280;42155;53.096;23.226;2023-08-31T09:36:27;99118.53;;;19.80;74.00
56241;BME280;42155;53.096;23.226;2023-08-31T09:38:45;99136.13;;;19.82;74.31
56241;BME280;42155;53.096;23.226;2023-08-31T09:40:45;99125.78;;;19.79;73.94
56241;BME280;42155;53.096;23.226;2023-08-31T09:42:49;99135.13;;;19.83;74.08
56241;BME280;42155;53.096;23.226;2023-08-31T09:44:50;99125.78;;;19.79;74.24
56241;BME280;42155;53.096;23.226;2023-08-31T09:46:52;99133.22;;;19.77;73.80
56241;BME280;42155;53.096;23.226;2023-08-31T09:48:53;99134.47;;;19.75;73.50
56241;BME280;42155;53.096;23.226;2023-08-31T09:50:54;99154.38;;;19.80;73.15
56241;BME280;42155;53.096;23.226;2023-08-31T09:52:55;99113.72;;;19.62;73.14
56241;BME280;42155;53.096;23.226;2023-08-31T09:54:58;99151.69;;;19.87;73.27
56241;BME280;42155;53.096;23.226;2023-08-31T09:57:01;99139.69;;;19.90;73.08
56241;BME280;42155;53.096;23.226;2023-08-31T09:59:02;99150.25;;;19.91;72.60
56241;BME280;42155;53.096;23.226;2023-08-31T10:01:03;99146.53;;;19.92;73.17
56241;BME280;42155;53.096;23.226;2023-08-31T10:03:04;99147.75;;;19.90;73.13
56241;BME280;42155;53.096;23.226;2023-08-31T10:05:05;99143.81;;;19.86;72.69
56241;BME280;42155;53.096;23.226;2023-08-31T10:07:06;99140.91;;;19.80;72.68
56241;BME280;42155;53.096;23.226;2023-08-31T10:09:09;99150.84;;;19.80;72.95
56241;BME280;42155;53.096;23.226;2023-08-31T10:11:41;99138.00;;;19.75;72.71
56241;BME280;42155;53.096;23.226;2023-08-31T10:14:25;99143.16;;;19.70;72.91
56241;BME280;42155;53.096;23.226;2023-08-31T10:16:26;99152.28;;;19.69;73.46
56241;BME280;42155;53.096;23.226;2023-08-31T10:18:26;99136.94;;;19.70;72.95
56241;BME280;42155;53.096;23.226;2023-08-31T10:20:28;99153.50;;;19.73;73.06
56241;BME280;42155;53.096;23.226;2023-08-31T10:22:29;99120.28;;;19.53;72.53
56241;BME280;42155;53.096;23.226;2023-08-31T10:25:00;99152.25;;;19.63;72.36
56241;BME280;42155;53.096;23.226;2023-08-31T10:27:22;99153.06;;;19.63;72.87
56241;BME280;42155;53.096;23.226;2023-08-31T10:29:27;99146.91;;;19.69;72.42
56241;BME280;42155;53.096;23.226;2023-08-31T10:31:33;99151.69;;;19.80;72.64
56241;BME280;42155;53.096;23.226;2023-08-31T10:33:40;99156.06;;;19.95;71.91
56241;BME280;42155;53.096;23.226;2023-08-31T10:43:19;99152.00;;;20.65;70.53
56241;BME280;42155;53.096;23.226;2023-08-31T10:45:25;99147.03;;;20.69;70.50
56241;BME280;42155;53.096;23.226;2023-08-31T10:47:37;99147.66;;;20.77;70.19
56241;BME280;42155;53.096;23.226;2023-08-31T10:49:38;99154.50;;;20.80;70.29
56241;BME280;42155;53.096;23.226;2023-08-31T10:51:39;99149.09;;;20.73;70.72
56241;BME280;42155;53.096;23.226;2023-08-31T10:53:40;99146.63;;;20.65;70.62
56241;BME280;42155;53.096;23.226;2023-08-31T10:55:52;99125.50;;;20.49;70.45